createdAt,value
2019-05-09T00:03:03.598Z,3.53
2019-05-09T00:07:20.366Z,2.80
2019-05-09T00:11:37.084Z,3.10
2019-05-09T00:15:54.158Z,3.00
2019-05-09T00:20:25.495Z,2.50
2019-05-09T00:24:42.055Z,2.27
2019-05-09T00:29:03.785Z,3.00
2019-05-09T00:33:23.566Z,2.30
2019-05-09T00:37:53.847Z,3.07
2019-05-09T00:42:10.346Z,3.20
2019-05-09T00:46:28.788Z,2.50
2019-05-09T00:50:45.342Z,2.60
2019-05-09T00:55:04.313Z,2.30
2019-05-09T00:59:20.821Z,2.40
2019-05-09T01:03:37.448Z,2.00
2019-05-09T01:07:53.973Z,1.70
2019-05-09T01:12:10.483Z,1.90
2019-05-09T01:16:27.021Z,1.90
2019-05-09T01:20:44.116Z,1.60
2019-05-09T01:25:01.177Z,1.60
2019-05-09T01:29:18.209Z,1.30
2019-05-09T01:33:53.459Z,1.10
2019-05-09T01:38:10.187Z,0.90
2019-05-09T01:42:26.860Z,1.70
2019-05-09T01:46:43.668Z,1.20
2019-05-09T01:51:00.357Z,1.27
2019-05-09T01:55:17.095Z,1.30
2019-05-09T01:59:34.248Z,1.10
2019-05-09T02:03:50.946Z,1.00
2019-05-09T02:08:07.603Z,1.10
2019-05-09T02:12:24.664Z,0.90
2019-05-09T02:16:43.207Z,1.00
2019-05-09T02:20:59.733Z,1.20
2019-05-09T02:25:16.485Z,0.90
2019-05-09T02:29:33.755Z,0.80
2019-05-09T02:33:50.476Z,1.10
2019-05-09T02:38:09.461Z,0.80
2019-05-09T02:42:27.313Z,0.97
2019-05-09T02:46:58.906Z,1.00
2019-05-09T02:51:18.206Z,0.97
2019-05-09T02:55:34.066Z,0.87
2019-05-09T02:59:53.539Z,0.90
2019-05-09T03:04:10.242Z,1.30
2019-05-09T03:08:29.529Z,1.27
2019-05-09T03:12:49.783Z,1.27
2019-05-09T03:17:04.021Z,1.20
2019-05-09T03:21:31.621Z,1.10
2019-05-09T03:25:48.574Z,0.93
2019-05-09T03:30:11.921Z,1.20
2019-05-09T03:34:29.795Z,1.30
2019-05-09T03:38:47.450Z,1.07
2019-05-09T03:43:05.137Z,1.20
2019-05-09T03:47:31.406Z,1.40
2019-05-09T03:51:48.370Z,1.30
2019-05-09T03:56:07.908Z,1.97
2019-05-09T04:00:24.682Z,1.40
2019-05-09T04:04:41.252Z,1.70
2019-05-09T04:08:58.509Z,1.10
2019-05-09T04:13:17.875Z,1.30
2019-05-09T04:17:47.530Z,1.43
2019-05-09T04:22:04.514Z,1.10
2019-05-09T04:26:30.408Z,0.80
2019-05-09T04:30:47.756Z,1.10
2019-05-09T04:35:05.216Z,0.73
2019-05-09T04:39:23.865Z,0.70
2019-05-09T04:43:42.568Z,1.03
2019-05-09T04:47:59.065Z,1.10
2019-05-09T04:52:17.910Z,1.00
2019-05-09T04:56:39.049Z,1.07
2019-05-09T05:01:07.571Z,1.10
2019-05-09T05:05:24.077Z,1.00
2019-05-09T05:09:41.043Z,1.17
2019-05-09T05:13:58.697Z,1.22
2019-05-09T05:18:17.382Z,1.53
2019-05-09T05:22:35.852Z,0.90
2019-05-09T05:26:52.397Z,0.90
2019-05-09T05:31:08.882Z,1.27
2019-05-09T05:35:28.471Z,1.03
2019-05-09T05:39:45.123Z,1.23
2019-05-09T05:44:01.626Z,1.07
2019-05-09T05:48:20.777Z,1.00
2019-05-09T05:52:37.650Z,1.07
2019-05-09T05:56:54.267Z,1.13
2019-05-09T06:01:10.843Z,1.20
2019-05-09T06:05:27.919Z,1.00
2019-05-09T06:09:44.504Z,0.93
2019-05-09T06:14:08.545Z,1.30
2019-05-09T06:18:20.084Z,1.10
2019-05-09T06:22:38.205Z,1.10
2019-05-09T06:26:54.979Z,1.03
2019-05-09T06:31:12.032Z,1.13
2019-05-09T06:35:28.535Z,1.10
2019-05-09T06:39:45.212Z,1.00
2019-05-09T06:44:18.200Z,1.13
2019-05-09T06:48:34.363Z,1.30
2019-05-09T06:52:50.878Z,1.07
2019-05-09T06:57:08.078Z,1.40
2019-05-09T07:01:29.753Z,1.10
2019-05-09T07:05:52.120Z,1.40
2019-05-09T07:10:10.105Z,1.00
2019-05-09T07:14:31.906Z,1.33
2019-05-09T07:18:45.809Z,1.10
2019-05-09T07:23:02.615Z,1.00
2019-05-09T07:27:19.155Z,1.10
2019-05-09T07:31:40.469Z,1.00
2019-05-09T07:35:58.082Z,0.97
2019-05-09T07:40:17.809Z,1.30
2019-05-09T07:44:48.012Z,1.00
2019-05-09T07:48:54.082Z,1.20
2019-05-09T07:53:11.568Z,1.10
2019-05-09T07:57:28.654Z,1.03
2019-05-09T08:01:45.216Z,1.17
2019-05-09T08:06:01.858Z,0.93
2019-05-09T08:10:18.373Z,1.30
2019-05-09T08:14:37.534Z,1.10
2019-05-09T08:18:53.560Z,1.00
2019-05-09T08:23:10.092Z,1.00
2019-05-09T08:27:30.162Z,1.07
2019-05-09T08:31:46.410Z,0.90
2019-05-09T08:36:03.897Z,1.10
2019-05-09T08:40:21.456Z,1.20
2019-05-09T08:44:42.008Z,1.30
2019-05-09T08:48:57.756Z,0.80
2019-05-09T08:53:14.348Z,1.00
2019-05-09T08:57:30.910Z,0.90
2019-05-09T09:02:10.682Z,1.03
2019-05-09T09:06:08.095Z,1.30
2019-05-09T09:10:24.550Z,1.30
2019-05-09T09:14:41.053Z,1.17
2019-05-09T09:18:58.567Z,1.23
2019-05-09T09:23:17.868Z,1.33
2019-05-09T09:27:34.086Z,1.20
2019-05-09T09:31:50.606Z,1.10
2019-05-09T09:36:08.737Z,1.00
2019-05-09T09:40:27.695Z,1.20
2019-05-09T09:44:43.722Z,1.00
2019-05-09T09:49:00.242Z,0.90
2019-05-09T09:53:18.438Z,1.17
2019-05-09T09:57:37.633Z,1.20
2019-05-09T10:02:01.554Z,1.23
2019-05-09T10:06:18.188Z,1.30
2019-05-09T10:10:36.105Z,1.13
2019-05-09T10:15:12.183Z,1.40
2019-05-09T10:19:48.171Z,1.07
2019-05-09T10:24:05.297Z,1.13
2019-05-09T10:28:21.977Z,1.10
2019-05-09T10:32:38.654Z,1.00
2019-05-09T10:36:55.283Z,1.10
2019-05-09T10:41:11.821Z,1.20
2019-05-09T10:45:33.453Z,0.80
2019-05-09T10:49:50.361Z,1.20
2019-05-09T10:54:08.151Z,0.83
2019-05-09T10:58:25.370Z,1.20
2019-05-09T11:02:41.846Z,0.80
2019-05-09T11:06:58.752Z,1.00
2019-05-09T11:11:17.845Z,1.07
2019-05-09T11:15:34.434Z,1.10
2019-05-09T11:19:51.063Z,0.97
2019-05-09T11:24:08.333Z,0.90
2019-05-09T11:28:25.244Z,1.00
2019-05-09T11:32:41.836Z,1.13
2019-05-09T11:36:58.368Z,0.80
2019-05-09T11:41:18.822Z,1.10
2019-05-09T11:45:33.845Z,1.10
2019-05-09T11:49:50.394Z,0.90
2019-05-09T11:54:09.184Z,0.90
2019-05-09T11:58:27.896Z,0.80
2019-05-09T12:02:44.212Z,0.67
2019-05-09T12:07:01.141Z,0.80
2019-05-09T12:11:18.702Z,1.00
2019-05-09T12:15:38.766Z,0.60
2019-05-09T12:20:09.024Z,0.90
2019-05-09T12:24:12.743Z,0.97
2019-05-09T12:28:29.261Z,1.00
2019-05-09T12:32:45.745Z,0.80
2019-05-09T12:37:02.502Z,1.20
2019-05-09T12:41:19.383Z,1.00
2019-05-09T12:45:38.557Z,0.90
2019-05-09T12:49:54.592Z,0.90
2019-05-09T12:54:11.198Z,1.15
2019-05-09T12:58:28.969Z,0.68
2019-05-09T13:02:45.489Z,0.93
2019-05-09T13:07:02.654Z,0.88
2019-05-09T13:11:20.151Z,0.90
2019-05-09T13:15:40.947Z,0.98
2019-05-09T13:19:58.570Z,0.78
2019-05-09T13:24:19.463Z,0.57
2019-05-09T13:28:34.104Z,0.93
2019-05-09T13:32:50.667Z,0.90
2019-05-09T13:37:09.152Z,1.07
2019-05-09T13:41:26.016Z,0.62
2019-05-09T13:45:42.489Z,0.90
2019-05-09T13:49:59.325Z,0.90
2019-05-09T13:54:18.466Z,0.70
2019-05-09T13:58:35.040Z,0.60
2019-05-09T14:02:54.900Z,0.60
2019-05-09T14:07:11.569Z,0.43
2019-05-09T14:11:29.126Z,0.70
2019-05-09T14:15:48.693Z,0.60
2019-05-09T14:20:08.830Z,0.53
2019-05-09T14:24:24.919Z,0.60
2019-05-09T14:28:41.411Z,0.73
2019-05-09T14:33:00.277Z,0.70
2019-05-09T14:37:18.005Z,0.60
2019-05-09T14:41:34.839Z,0.67
2019-05-09T14:45:51.465Z,0.63
2019-05-09T14:50:09.988Z,0.60
2019-05-09T14:54:28.921Z,0.60
2019-05-09T14:58:45.713Z,0.60
2019-05-09T15:03:02.376Z,0.40
2019-05-09T15:07:19.512Z,0.50
2019-05-09T15:11:39.487Z,0.70
2019-05-09T15:15:57.732Z,0.70
2019-05-09T15:20:14.351Z,0.87
2019-05-09T15:24:30.860Z,0.87
2019-05-09T15:28:48.375Z,0.90
2019-05-09T15:33:05.120Z,0.60
2019-05-09T15:37:21.640Z,1.00
2019-05-09T15:41:38.696Z,0.80
2019-05-09T15:46:08.353Z,1.00
2019-05-09T15:50:24.581Z,0.50
2019-05-09T15:54:41.082Z,0.70
2019-05-09T15:58:58.117Z,1.10
2019-05-09T16:03:14.842Z,1.00
2019-05-09T16:07:31.366Z,1.23
2019-05-09T16:11:48.542Z,0.90
2019-05-09T16:16:05.589Z,0.60
2019-05-09T16:20:36.273Z,1.00
2019-05-09T16:24:40.639Z,0.97
2019-05-09T16:28:58.524Z,3.10
2019-05-09T16:33:15.086Z,4.63
2019-05-09T16:37:52.803Z,1.23
2019-05-09T16:41:50.262Z,0.80
2019-05-09T16:46:07.578Z,0.80
2019-05-09T16:50:24.707Z,0.90
2019-05-09T16:54:43.477Z,0.80
2019-05-09T16:58:59.978Z,1.00
2019-05-09T17:03:18.712Z,1.10
2019-05-09T17:07:35.247Z,0.80
2019-05-09T17:11:51.900Z,0.93
2019-05-09T17:16:08.790Z,0.50
2019-05-09T17:20:27.844Z,0.60
2019-05-09T17:24:45.455Z,0.60
2019-05-09T17:29:01.954Z,0.50
2019-05-09T17:33:19.191Z,0.50
2019-05-09T17:37:37.942Z,0.43
2019-05-09T17:41:54.690Z,0.57
2019-05-09T17:46:11.618Z,0.50
2019-05-09T17:50:28.732Z,0.70
2019-05-09T17:54:48.506Z,0.50
2019-05-09T17:59:08.323Z,0.60
2019-05-09T18:03:25.218Z,0.47
2019-05-09T18:07:42.279Z,0.37
2019-05-09T18:11:58.801Z,0.40
2019-05-09T18:16:18.747Z,0.30
2019-05-09T18:20:34.803Z,0.50
2019-05-09T18:24:51.317Z,0.93
2019-05-09T18:29:09.385Z,0.80
2019-05-09T18:33:38.012Z,0.90
2019-05-09T18:37:54.675Z,0.50
2019-05-09T18:42:14.558Z,0.70
2019-05-09T18:46:31.101Z,0.43
2019-05-09T18:50:50.745Z,0.53
2019-05-09T18:55:08.937Z,0.53
2019-05-09T18:59:30.811Z,0.50
2019-05-09T19:03:48.485Z,0.70
2019-05-09T19:08:05.036Z,0.30
2019-05-09T19:12:21.670Z,0.30
2019-05-09T19:16:51.807Z,0.37
2019-05-09T19:21:22.425Z,0.77
2019-05-09T19:25:41.118Z,0.60
2019-05-09T19:29:57.607Z,0.40
2019-05-09T19:34:15.537Z,0.43
2019-05-09T19:38:33.938Z,0.50
2019-05-09T19:42:50.848Z,0.60
2019-05-09T19:47:09.753Z,0.13
2019-05-09T19:51:27.476Z,0.30
2019-05-09T19:55:47.828Z,0.30
2019-05-09T20:00:09.289Z,0.30
2019-05-09T20:04:25.936Z,0.60
2019-05-09T20:08:44.318Z,0.50
2019-05-09T20:13:08.646Z,0.30
2019-05-09T20:17:25.311Z,0.40
2019-05-09T20:21:41.810Z,0.37
2019-05-09T20:25:58.588Z,0.30
2019-05-09T20:30:15.335Z,0.30
2019-05-09T20:34:32.091Z,0.20
2019-05-09T20:38:48.684Z,0.30
2019-05-09T20:43:05.286Z,0.30
2019-05-09T20:47:22.104Z,0.40
2019-05-09T20:51:38.660Z,0.40
2019-05-09T20:55:55.517Z,0.40
2019-05-09T21:00:12.398Z,0.40
2019-05-09T21:04:28.840Z,0.50
2019-05-09T21:08:45.294Z,0.40
2019-05-09T21:13:01.822Z,0.60
2019-05-09T21:17:18.385Z,0.60
2019-05-09T21:21:34.931Z,0.50
2019-05-09T21:25:51.459Z,0.40
2019-05-09T21:30:08.512Z,0.37
2019-05-09T21:34:25.214Z,0.30
2019-05-09T21:38:41.753Z,0.30
2019-05-09T21:42:58.599Z,0.33
2019-05-09T21:47:15.138Z,0.37
2019-05-09T21:51:31.827Z,0.40
2019-05-09T21:55:48.312Z,0.20
2019-05-09T22:00:13.201Z,0.50
2019-05-09T22:04:30.010Z,0.30
2019-05-09T22:08:46.602Z,0.30
2019-05-09T22:13:03.217Z,0.40
2019-05-09T22:17:21.683Z,0.20
2019-05-09T22:21:38.454Z,0.30
2019-05-09T22:25:55.008Z,0.33
2019-05-09T22:30:14.036Z,0.60
2019-05-09T22:34:30.488Z,0.67
2019-05-09T22:38:46.909Z,0.90
2019-05-09T22:43:03.824Z,1.00
2019-05-09T22:47:20.279Z,0.90
2019-05-09T22:51:36.808Z,1.40
2019-05-09T22:55:53.336Z,1.30
2019-05-09T23:00:10.168Z,1.47
2019-05-09T23:04:26.591Z,1.60
2019-05-09T23:08:43.278Z,1.17
2019-05-09T23:12:59.730Z,1.07
2019-05-09T23:17:16.506Z,1.73
2019-05-09T23:21:32.951Z,2.77
2019-05-09T23:25:49.371Z,2.70
2019-05-09T23:30:06.803Z,2.80
2019-05-09T23:34:23.448Z,2.80
2019-05-09T23:38:58.186Z,2.60
2019-05-09T23:43:14.642Z,3.03
2019-05-09T23:47:31.090Z,2.70
2019-05-09T23:51:48.634Z,2.90
2019-05-09T23:56:23.734Z,3.80
